Marana, AZ (85653)

8:17 AM MST on May 03, 2015 (GMT -0700)
El Tiro Gliderport | | Change Station
CLOSE
Current Station
Personal Weather Station
Location: Marana, AZ
Elevation: 2100 ft
Nearby Weather Stations

Elev 2100 ft 32.43 °N, 111.39 °W | Updated 5 seconds ago

Clear
Clear
77.9 °F
Feels Like 78 °F
N
2.0
Wind Variable Wind from ENE
Gusts 2.5 mph

Today
High -- | Low -- °F
--% Chance of Precip.
Yesterday
High -- | Low -- °F
Precip. -- in
5:36 AM 7:07 PM
Full, 100% visible
Pressure 29.86 in
Visibility 10.0 miles
Clouds Clear
Heat Index 78 °F
Dew Point 44 °F
Humidity 30%
Rainfall 0.00 in
Snow Depth Not available.
UV 3 out of 12
Pollen 6.60 out of 12
Air Quality Not available.
Flu Activity Local Activity
METAR KTUS 031453Z 16005KT 10SM CLR 22/06 A2998 RMK AO2 SLP109 T02220061 53016

More Conditions Fewer Conditions

Pressure 29.86 in
Visibility 10.0 miles
Clouds Clear
Heat Index 78 °F
Dew Point 44 °F
Humidity 30%
Rainfall 0.00 in
Snow Depth Not available.
UV 3 out of 12
Pollen 6.60 out of 12
Air Quality Not available.
Flu Activity Local Activity
METAR KTUS 031453Z 16005KT 10SM CLR 22/06 A2998 RMK AO2 SLP109 T02220061 53016

More Conditions Fewer Conditions

Nepal has a long way to go to dig out and rebuild from a devastating earthquake. We have teamed up with several charities and organizations to make contributing to the relief effort as easy as possible.
How you can help: Portlight Strategies | Red Cross

10-Day Weather Forecast

Almanac

Astronomy

May. 03, 2015 Rise Set
Actual Time
Civil Twilight
Nautical Twilight
Astronomical Twilight
Moon
Length of Visible Light
Length of Day
Tomorrow will be .
, % of the Moon is Illuminated

Today's Extremes

State Highs State Lows

Community

WunderPhotos

Upload Photos

1,818,248 photos uploaded!

WunderBlogs® & News

Nearby

Air Quality

  Air Quality AQ Index Pollutant
Not available.

Snow Depth

Station Depth Elevation

Earthquake Activity

City Distance Mag. Time & Date
Minimum magnitude displayed is 2.5.

Coastal Water Temperatures

Place Temperature

Stations

Nearby Weather Stations

Station Location Temp. Windchill Dew Point Humidity Wind Precip. Elev Updated Type